sensor_id;sensor_type;location;lat;lon;timestamp;P1;durP1;ratioP1;P2;durP2;ratioP2
49235;SDS011;35067;48.134;8.378;2023-04-29T00:00:26;2.57;;;1.97;;
49235;SDS011;35067;48.134;8.378;2023-04-29T00:01:29;2.45;;;2.00;;
49235;SDS011;35067;48.134;8.378;2023-04-29T00:02:30;3.20;;;1.63;;
49235;SDS011;35067;48.134;8.378;2023-04-29T00:03:31;7.78;;;3.17;;
49235;SDS011;35067;48.134;8.378;2023-04-29T00:04:32;2.07;;;1.83;;
49235;SDS011;35067;48.134;8.378;2023-04-29T00:05:33;2.00;;;1.80;;
49235;SDS011;35067;48.134;8.378;2023-04-29T00:06:37;1.92;;;1.52;;
49235;SDS011;35067;48.134;8.378;2023-04-29T00:07:38;2.27;;;2.03;;
49235;SDS011;35067;48.134;8.378;2023-04-29T00:08:38;4.87;;;2.30;;
49235;SDS011;35067;48.134;8.378;2023-04-29T00:09:40;3.25;;;2.00;;
49235;SDS011;35067;48.134;8.378;2023-04-29T00:10:41;3.38;;;1.85;;
49235;SDS011;35067;48.134;8.378;2023-04-29T00:11:42;2.43;;;2.00;;
49235;SDS011;35067;48.134;8.378;2023-04-29T00:12:43;2.30;;;2.00;;
49235;SDS011;35067;48.134;8.378;2023-04-29T00:13:43;3.43;;;2.63;;
49235;SDS011;35067;48.134;8.378;2023-04-29T00:14:45;3.45;;;1.92;;
49235;SDS011;35067;48.134;8.378;2023-04-29T00:15:46;2.37;;;1.90;;
49235;SDS011;35067;48.134;8.378;2023-04-29T00:16:47;3.70;;;2.17;;
49235;SDS011;35067;48.134;8.378;2023-04-29T00:17:48;2.50;;;2.10;;
49235;SDS011;35067;48.134;8.378;2023-04-29T00:18:50;3.25;;;2.05;;
49235;SDS011;35067;48.134;8.378;2023-04-29T00:19:50;2.10;;;1.90;;
49235;SDS011;35067;48.134;8.378;2023-04-29T00:20:51;2.97;;;2.10;;
49235;SDS011;35067;48.134;8.378;2023-04-29T00:21:52;2.13;;;1.93;;
49235;SDS011;35067;48.134;8.378;2023-04-29T00:22:53;2.38;;;2.08;;
49235;SDS011;35067;48.134;8.378;2023-04-29T00:23:54;2.67;;;2.00;;
49235;SDS011;35067;48.134;8.378;2023-04-29T00:24:55;2.57;;;2.20;;
49235;SDS011;35067;48.134;8.378;2023-04-29T00:25:57;2.33;;;2.00;;
49235;SDS011;35067;48.134;8.378;2023-04-29T00:26:57;2.33;;;2.13;;
49235;SDS011;35067;48.134;8.378;2023-04-29T00:27:58;2.65;;;2.00;;
49235;SDS011;35067;48.134;8.378;2023-04-29T00:29:01;5.20;;;2.53;;
49235;SDS011;35067;48.134;8.378;2023-04-29T00:30:01;3.93;;;2.53;;
49235;SDS011;35067;48.134;8.378;2023-04-29T00:31:02;2.53;;;2.10;;
49235;SDS011;35067;48.134;8.378;2023-04-29T00:32:03;2.50;;;2.20;;
49235;SDS011;35067;48.134;8.378;2023-04-29T00:33:04;3.07;;;2.27;;
49235;SDS011;35067;48.134;8.378;2023-04-29T00:34:05;3.67;;;2.10;;
49235;SDS011;35067;48.134;8.378;2023-04-29T00:35:06;2.57;;;2.20;;
49235;SDS011;35067;48.134;8.378;2023-04-29T00:36:09;2.88;;;1.70;;
49235;SDS011;35067;48.134;8.378;2023-04-29T00:37:10;2.63;;;2.20;;
49235;SDS011;35067;48.134;8.378;2023-04-29T00:38:11;5.53;;;2.30;;
49235;SDS011;35067;48.134;8.378;2023-04-29T00:39:12;3.33;;;2.50;;
49235;SDS011;35067;48.134;8.378;2023-04-29T00:40:16;4.73;;;2.30;;
49235;SDS011;35067;48.134;8.378;2023-04-29T00:41:18;3.63;;;2.22;;
49235;SDS011;35067;48.134;8.378;2023-04-29T00:42:20;2.20;;;2.00;;
49235;SDS011;35067;48.134;8.378;2023-04-29T00:43:22;3.35;;;1.92;;
49235;SDS011;35067;48.134;8.378;2023-04-29T00:44:23;2.97;;;2.10;;
49235;SDS011;35067;48.134;8.378;2023-04-29T00:45:25;2.33;;;2.13;;
49235;SDS011;35067;48.134;8.378;2023-04-29T00:46:26;4.00;;;2.20;;
49235;SDS011;35067;48.134;8.378;2023-04-29T00:47:27;2.27;;;2.07;;
49235;SDS011;35067;48.134;8.378;2023-04-29T00:48:29;5.45;;;2.53;;
49235;SDS011;35067;48.134;8.378;2023-04-29T00:49:31;4.00;;;2.10;;
49235;SDS011;35067;48.134;8.378;2023-04-29T00:50:31;2.20;;;2.00;;
49235;SDS011;35067;48.134;8.378;2023-04-29T00:51:33;2.38;;;1.90;;
49235;SDS011;35067;48.134;8.378;2023-04-29T00:52:36;3.78;;;2.13;;
49235;SDS011;35067;48.134;8.378;2023-04-29T00:53:38;3.40;;;2.50;;
49235;SDS011;35067;48.134;8.378;2023-04-29T00:54:39;2.50;;;2.20;;
49235;SDS011;35067;48.134;8.378;2023-04-29T00:55:42;5.90;;;2.05;;
49235;SDS011;35067;48.134;8.378;2023-04-29T00:56:47;2.50;;;1.88;;
49235;SDS011;35067;48.134;8.378;2023-04-29T00:57:51;5.38;;;2.40;;
49235;SDS011;35067;48.134;8.378;2023-04-29T00:58:52;2.40;;;2.17;;
49235;SDS011;35067;48.134;8.378;2023-04-29T00:59:54;2.30;;;2.00;;
49235;SDS011;35067;48.134;8.378;2023-04-29T01:00:58;3.13;;;2.10;;
49235;SDS011;35067;48.134;8.378;2023-04-29T01:02:01;2.65;;;2.30;;
49235;SDS011;35067;48.134;8.378;2023-04-29T01:03:03;2.88;;;2.22;;
49235;SDS011;35067;48.134;8.378;2023-04-29T01:04:04;3.33;;;2.30;;
49235;SDS011;35067;48.134;8.378;2023-04-29T01:05:07;3.25;;;2.35;;
49235;SDS011;35067;48.134;8.378;2023-04-29T01:08:02;2.22;;;2.03;;
49235;SDS011;35067;48.134;8.378;2023-04-29T01:10:52;2.40;;;2.20;;
49235;SDS011;35067;48.134;8.378;2023-04-29T01:13:45;2.78;;;2.53;;
49235;SDS011;35067;48.134;8.378;2023-04-29T01:15:05;2.47;;;1.98;;
49235;SDS011;35067;48.134;8.378;2023-04-29T01:16:47;4.18;;;2.30;;
49235;SDS011;35067;48.134;8.378;2023-04-29T01:17:59;2.78;;;2.33;;
49235;SDS011;35067;48.134;8.378;2023-04-29T01:20:46;3.55;;;1.90;;
49235;SDS011;35067;48.134;8.378;2023-04-29T01:21:47;4.10;;;2.30;;
49235;SDS011;35067;48.134;8.378;2023-04-29T01:22:50;3.78;;;2.30;;
49235;SDS011;35067;48.134;8.378;2023-04-29T01:23:50;3.37;;;2.60;;
49235;SDS011;35067;48.134;8.378;2023-04-29T01:24:55;3.03;;;2.17;;
49235;SDS011;35067;48.134;8.378;2023-04-29T01:25:56;3.47;;;2.67;;
49235;SDS011;35067;48.134;8.378;2023-04-29T01:26:58;3.45;;;2.30;;
49235;SDS011;35067;48.134;8.378;2023-04-29T01:28:49;3.85;;;2.38;;
49235;SDS011;35067;48.134;8.378;2023-04-29T01:30:01;3.88;;;3.00;;
49235;SDS011;35067;48.134;8.378;2023-04-29T01:31:38;3.67;;;2.85;;
49235;SDS011;35067;48.134;8.378;2023-04-29T01:32:51;3.45;;;2.30;;
49235;SDS011;35067;48.134;8.378;2023-04-29T01:34:18;4.03;;;2.38;;
49235;SDS011;35067;48.134;8.378;2023-04-29T01:36:15;2.80;;;2.50;;
49235;SDS011;35067;48.134;8.378;2023-04-29T01:38:41;3.78;;;2.30;;
49235;SDS011;35067;48.134;8.378;2023-04-29T01:41:34;2.97;;;2.60;;
49235;SDS011;35067;48.134;8.378;2023-04-29T01:42:47;2.95;;;2.40;;
49235;SDS011;35067;48.134;8.378;2023-04-29T01:44:01;3.40;;;2.33;;
49235;SDS011;35067;48.134;8.378;2023-04-29T01:45:05;3.58;;;2.47;;
49235;SDS011;35067;48.134;8.378;2023-04-29T01:46:10;4.60;;;2.67;;
49235;SDS011;35067;48.134;8.378;2023-04-29T01:47:15;3.40;;;2.78;;
49235;SDS011;35067;48.134;8.378;2023-04-29T01:48:17;6.78;;;3.10;;
49235;SDS011;35067;48.134;8.378;2023-04-29T01:49:24;5.10;;;3.40;;
49235;SDS011;35067;48.134;8.378;2023-04-29T01:50:26;6.32;;;2.95;;
49235;SDS011;35067;48.134;8.378;2023-04-29T01:51:27;3.10;;;2.50;;
49235;SDS011;35067;48.134;8.378;2023-04-29T01:52:30;23.60;;;3.58;;
49235;SDS011;35067;48.134;8.378;2023-04-29T01:53:31;45.10;;;5.63;;
49235;SDS011;35067;48.134;8.378;2023-04-29T01:54:32;12.65;;;3.15;;
49235;SDS011;35067;48.134;8.378;2023-04-29T01:55:35;33.90;;;4.30;;
49235;SDS011;35067;48.134;8.378;2023-04-29T01:56:36;25.20;;;4.50;;
49235;SDS011;35067;48.134;8.378;2023-04-29T01:57:36;27.77;;;4.23;;
49235;SDS011;35067;48.134;8.378;2023-04-29T01:58:37;61.50;;;6.73;;
49235;SDS011;35067;48.134;8.378;2023-04-29T01:59:38;49.63;;;6.47;;
49235;SDS011;35067;48.134;8.378;2023-04-29T02:00:39;39.17;;;6.57;;
49235;SDS011;35067;48.134;8.378;2023-04-29T02:01:40;6.28;;;3.33;;
49235;SDS011;35067;48.134;8.378;2023-04-29T02:02:41;24.48;;;4.45;;
49235;SDS011;35067;48.134;8.378;2023-04-29T02:03:42;13.97;;;4.00;;
49235;SDS011;35067;48.134;8.378;2023-04-29T02:04:43;5.73;;;2.87;;
49235;SDS011;35067;48.134;8.378;2023-04-29T02:05:45;8.02;;;3.70;;
49235;SDS011;35067;48.134;8.378;2023-04-29T02:06:46;6.37;;;3.03;;
49235;SDS011;35067;48.134;8.378;2023-04-29T02:07:47;4.32;;;3.10;;
49235;SDS011;35067;48.134;8.378;2023-04-29T02:08:48;5.03;;;3.30;;
49235;SDS011;35067;48.134;8.378;2023-04-29T02:09:49;6.27;;;3.20;;
49235;SDS011;35067;48.134;8.378;2023-04-29T02:10:56;5.85;;;3.00;;
49235;SDS011;35067;48.134;8.378;2023-04-29T02:11:59;5.53;;;2.72;;
49235;SDS011;35067;48.134;8.378;2023-04-29T02:13:03;4.95;;;2.80;;
49235;SDS011;35067;48.134;8.378;2023-04-29T02:14:04;7.50;;;3.47;;
49235;SDS011;35067;48.134;8.378;2023-04-29T02:15:05;8.97;;;2.70;;
49235;SDS011;35067;48.134;8.378;2023-04-29T02:16:09;5.13;;;2.80;;
49235;SDS011;35067;48.134;8.378;2023-04-29T02:17:11;4.63;;;2.63;;
49235;SDS011;35067;48.134;8.378;2023-04-29T02:18:12;3.88;;;2.53;;
49235;SDS011;35067;48.134;8.378;2023-04-29T02:19:15;2.97;;;2.35;;
49235;SDS011;35067;48.134;8.378;2023-04-29T02:20:15;5.67;;;2.40;;
49235;SDS011;35067;48.134;8.378;2023-04-29T02:21:17;3.95;;;2.35;;
49235;SDS011;35067;48.134;8.378;2023-04-29T02:22:20;2.90;;;2.47;;
49235;SDS011;35067;48.134;8.378;2023-04-29T02:23:21;2.78;;;2.33;;
49235;SDS011;35067;48.134;8.378;2023-04-29T02:24:21;4.13;;;2.77;;
49235;SDS011;35067;48.134;8.378;2023-04-29T02:25:23;4.30;;;2.70;;
49235;SDS011;35067;48.134;8.378;2023-04-29T02:26:24;2.53;;;2.33;;
49235;SDS011;35067;48.134;8.378;2023-04-29T02:27:25;5.53;;;2.40;;
49235;SDS011;35067;48.134;8.378;2023-04-29T02:28:26;2.43;;;2.10;;
49235;SDS011;35067;48.134;8.378;2023-04-29T02:29:27;2.40;;;2.07;;
49235;SDS011;35067;48.134;8.378;2023-04-29T02:30:29;3.15;;;2.45;;
49235;SDS011;35067;48.134;8.378;2023-04-29T02:31:30;2.50;;;2.30;;
49235;SDS011;35067;48.134;8.378;2023-04-29T02:32:31;2.78;;;1.85;;
49235;SDS011;35067;48.134;8.378;2023-04-29T02:33:33;3.57;;;2.07;;
49235;SDS011;35067;48.134;8.378;2023-04-29T02:34:33;3.88;;;2.90;;
49235;SDS011;35067;48.134;8.378;2023-04-29T02:35:34;3.55;;;2.10;;
49235;SDS011;35067;48.134;8.378;2023-04-29T02:36:35;2.00;;;1.80;;
49235;SDS011;35067;48.134;8.378;2023-04-29T02:37:36;4.87;;;2.60;;
49235;SDS011;35067;48.134;8.378;2023-04-29T02:38:38;2.95;;;1.90;;
49235;SDS011;35067;48.134;8.378;2023-04-29T02:39:40;3.40;;;2.65;;
49235;SDS011;35067;48.134;8.378;2023-04-29T02:40:44;3.37;;;2.40;;
49235;SDS011;35067;48.134;8.378;2023-04-29T02:41:46;5.05;;;3.33;;
49235;SDS011;35067;48.134;8.378;2023-04-29T02:42:46;3.17;;;2.53;;
49235;SDS011;35067;48.134;8.378;2023-04-29T02:43:47;3.47;;;3.00;;
49235;SDS011;35067;48.134;8.378;2023-04-29T02:44:49;3.05;;;2.30;;
49235;SDS011;35067;48.134;8.378;2023-04-29T02:45:50;3.10;;;2.63;;
49235;SDS011;35067;48.134;8.378;2023-04-29T02:46:51;3.10;;;2.60;;
49235;SDS011;35067;48.134;8.378;2023-04-29T02:47:51;2.73;;;2.50;;
49235;SDS011;35067;48.134;8.378;2023-04-29T02:48:52;2.10;;;1.90;;
49235;SDS011;35067;48.134;8.378;2023-04-29T02:49:53;2.58;;;2.38;;
49235;SDS011;35067;48.134;8.378;2023-04-29T02:50:54;3.73;;;2.37;;
49235;SDS011;35067;48.134;8.378;2023-04-29T02:51:55;2.33;;;2.13;;
49235;SDS011;35067;48.134;8.378;2023-04-29T02:52:57;3.28;;;2.85;;
49235;SDS011;35067;48.134;8.378;2023-04-29T02:53:59;6.03;;;3.10;;
49235;SDS011;35067;48.134;8.378;2023-04-29T02:55:00;3.90;;;3.00;;
49235;SDS011;35067;48.134;8.378;2023-04-29T02:56:01;3.80;;;3.05;;
49235;SDS011;35067;48.134;8.378;2023-04-29T02:57:02;4.40;;;2.70;;
49235;SDS011;35067;48.134;8.378;2023-04-29T02:58:02;5.07;;;3.00;;
49235;SDS011;35067;48.134;8.378;2023-04-29T02:59:03;2.90;;;2.60;;
49235;SDS011;35067;48.134;8.378;2023-04-29T03:00:05;2.67;;;2.10;;
49235;SDS011;35067;48.134;8.378;2023-04-29T03:01:07;2.95;;;2.65;;
49235;SDS011;35067;48.134;8.378;2023-04-29T03:02:08;2.43;;;2.00;;
49235;SDS011;35067;48.134;8.378;2023-04-29T03:03:09;3.10;;;2.60;;
49235;SDS011;35067;48.134;8.378;2023-04-29T03:04:10;2.63;;;2.30;;
49235;SDS011;35067;48.134;8.378;2023-04-29T03:05:12;2.38;;;2.17;;
49235;SDS011;35067;48.134;8.378;2023-04-29T03:06:13;4.00;;;1.93;;
49235;SDS011;35067;48.134;8.378;2023-04-29T03:07:15;3.05;;;2.58;;
49235;SDS011;35067;48.134;8.378;2023-04-29T03:08:16;4.40;;;2.70;;
49235;SDS011;35067;48.134;8.378;2023-04-29T03:09:18;3.45;;;2.40;;
49235;SDS011;35067;48.134;8.378;2023-04-29T03:10:20;5.45;;;3.20;;
49235;SDS011;35067;48.134;8.378;2023-04-29T03:11:21;4.27;;;3.07;;
49235;SDS011;35067;48.134;8.378;2023-04-29T03:12:23;3.38;;;2.75;;
49235;SDS011;35067;48.134;8.378;2023-04-29T03:13:25;3.42;;;2.42;;
49235;SDS011;35067;48.134;8.378;2023-04-29T03:14:26;3.87;;;2.60;;
49235;SDS011;35067;48.134;8.378;2023-04-29T03:15:27;3.07;;;2.33;;
49235;SDS011;35067;48.134;8.378;2023-04-29T03:16:28;5.75;;;3.72;;
49235;SDS011;35067;48.134;8.378;2023-04-29T03:17:30;4.72;;;3.25;;
49235;SDS011;35067;48.134;8.378;2023-04-29T03:18:31;6.47;;;4.38;;
49235;SDS011;35067;48.134;8.378;2023-04-29T03:19:32;4.13;;;3.23;;
49235;SDS011;35067;48.134;8.378;2023-04-29T03:20:33;5.88;;;3.72;;
49235;SDS011;35067;48.134;8.378;2023-04-29T03:21:34;5.53;;;3.30;;
49235;SDS011;35067;48.134;8.378;2023-04-29T03:22:34;6.00;;;4.10;;
49235;SDS011;35067;48.134;8.378;2023-04-29T03:23:36;6.30;;;3.80;;
49235;SDS011;35067;48.134;8.378;2023-04-29T03:24:38;6.68;;;3.65;;
49235;SDS011;35067;48.134;8.378;2023-04-29T03:25:39;3.83;;;3.40;;
49235;SDS011;35067;48.134;8.378;2023-04-29T03:26:40;4.82;;;3.50;;
49235;SDS011;35067;48.134;8.378;2023-04-29T03:27:42;4.80;;;3.92;;
49235;SDS011;35067;48.134;8.378;2023-04-29T03:28:44;4.95;;;3.60;;
49235;SDS011;35067;48.134;8.378;2023-04-29T03:29:45;4.50;;;3.87;;
49235;SDS011;35067;48.134;8.378;2023-04-29T03:30:46;6.17;;;3.10;;
49235;SDS011;35067;48.134;8.378;2023-04-29T03:31:47;3.77;;;3.17;;
49235;SDS011;35067;48.134;8.378;2023-04-29T03:32:48;5.57;;;3.33;;
49235;SDS011;35067;48.134;8.378;2023-04-29T03:33:49;5.43;;;3.63;;
49235;SDS011;35067;48.134;8.378;2023-04-29T03:34:52;4.32;;;3.55;;
49235;SDS011;35067;48.134;8.378;2023-04-29T03:35:54;3.38;;;2.50;;
49235;SDS011;35067;48.134;8.378;2023-04-29T03:36:55;4.53;;;3.83;;
49235;SDS011;35067;48.134;8.378;2023-04-29T03:37:56;5.78;;;3.58;;
49235;SDS011;35067;48.134;8.378;2023-04-29T03:38:57;3.73;;;3.00;;
49235;SDS011;35067;48.134;8.378;2023-04-29T03:39:57;4.00;;;3.10;;
49235;SDS011;35067;48.134;8.378;2023-04-29T03:40:58;4.53;;;3.63;;
49235;SDS011;35067;48.134;8.378;2023-04-29T03:42:00;3.58;;;3.13;;
49235;SDS011;35067;48.134;8.378;2023-04-29T03:43:02;5.50;;;3.20;;
49235;SDS011;35067;48.134;8.378;2023-04-29T03:44:04;5.15;;;3.47;;
49235;SDS011;35067;48.134;8.378;2023-04-29T03:45:05;4.90;;;3.50;;
49235;SDS011;35067;48.134;8.378;2023-04-29T03:46:07;6.20;;;3.45;;
49235;SDS011;35067;48.134;8.378;2023-04-29T03:47:07;5.43;;;3.87;;
49235;SDS011;35067;48.134;8.378;2023-04-29T03:48:08;5.67;;;3.80;;
49235;SDS011;35067;48.134;8.378;2023-04-29T03:49:09;6.17;;;3.83;;
49235;SDS011;35067;48.134;8.378;2023-04-29T03:50:11;7.70;;;3.97;;
49235;SDS011;35067;48.134;8.378;2023-04-29T03:51:11;3.37;;;3.00;;
49235;SDS011;35067;48.134;8.378;2023-04-29T03:52:13;6.75;;;4.00;;
49235;SDS011;35067;48.134;8.378;2023-04-29T03:53:15;3.15;;;2.83;;
49235;SDS011;35067;48.134;8.378;2023-04-29T03:54:17;4.82;;;3.63;;
49235;SDS011;35067;48.134;8.378;2023-04-29T03:55:18;10.07;;;3.90;;
49235;SDS011;35067;48.134;8.378;2023-04-29T03:56:19;5.97;;;4.13;;
49235;SDS011;35067;48.134;8.378;2023-04-29T03:57:19;7.67;;;4.07;;
49235;SDS011;35067;48.134;8.378;2023-04-29T03:58:23;4.95;;;3.90;;
49235;SDS011;35067;48.134;8.378;2023-04-29T03:59:24;4.47;;;3.40;;
49235;SDS011;35067;48.134;8.378;2023-04-29T04:00:25;6.60;;;3.67;;
49235;SDS011;35067;48.134;8.378;2023-04-29T04:01:29;3.47;;;3.10;;
49235;SDS011;35067;48.134;8.378;2023-04-29T04:02:30;4.30;;;3.50;;
49235;SDS011;35067;48.134;8.378;2023-04-29T04:03:31;6.27;;;3.63;;
49235;SDS011;35067;48.134;8.378;2023-04-29T04:04:31;8.00;;;4.10;;
49235;SDS011;35067;48.134;8.378;2023-04-29T04:05:33;5.10;;;3.00;;
49235;SDS011;35067;48.134;8.378;2023-04-29T04:06:36;5.72;;;3.70;;
49235;SDS011;35067;48.134;8.378;2023-04-29T04:07:38;4.30;;;3.90;;
49235;SDS011;35067;48.134;8.378;2023-04-29T04:08:38;4.83;;;3.73;;
49235;SDS011;35067;48.134;8.378;2023-04-29T04:09:40;5.50;;;3.75;;
49235;SDS011;35067;48.134;8.378;2023-04-29T04:10:41;5.53;;;3.90;;
49235;SDS011;35067;48.134;8.378;2023-04-29T04:11:42;4.73;;;3.87;;
49235;SDS011;35067;48.134;8.378;2023-04-29T04:12:44;4.78;;;3.78;;
49235;SDS011;35067;48.134;8.378;2023-04-29T04:13:46;5.60;;;3.90;;
49235;SDS011;35067;48.134;8.378;2023-04-29T04:14:48;4.20;;;3.70;;
49235;SDS011;35067;48.134;8.378;2023-04-29T04:15:49;4.80;;;4.00;;
49235;SDS011;35067;48.134;8.378;2023-04-29T04:16:51;6.25;;;3.80;;
49235;SDS011;35067;48.134;8.378;2023-04-29T04:17:52;7.70;;;3.77;;
49235;SDS011;35067;48.134;8.378;2023-04-29T04:18:54;6.38;;;4.13;;
49235;SDS011;35067;48.134;8.378;2023-04-29T04:19:55;4.82;;;4.10;;
49235;SDS011;35067;48.134;8.378;2023-04-29T04:20:56;5.03;;;3.83;;
49235;SDS011;35067;48.134;8.378;2023-04-29T04:21:57;4.07;;;3.50;;
49235;SDS011;35067;48.134;8.378;2023-04-29T04:22:58;4.03;;;3.50;;
49235;SDS011;35067;48.134;8.378;2023-04-29T04:23:59;4.70;;;4.05;;
49235;SDS011;35067;48.134;8.378;2023-04-29T04:25:00;4.77;;;3.23;;
49235;SDS011;35067;48.134;8.378;2023-04-29T04:26:01;3.83;;;3.40;;
49235;SDS011;35067;48.134;8.378;2023-04-29T04:27:03;4.78;;;3.72;;
49235;SDS011;35067;48.134;8.378;2023-04-29T04:28:04;4.93;;;3.87;;
49235;SDS011;35067;48.134;8.378;2023-04-29T04:29:06;4.95;;;3.83;;
49235;SDS011;35067;48.134;8.378;2023-04-29T04:30:07;6.88;;;3.92;;
49235;SDS011;35067;48.134;8.378;2023-04-29T04:31:08;6.03;;;3.95;;
49235;SDS011;35067;48.134;8.378;2023-04-29T04:32:09;5.00;;;4.20;;
49235;SDS011;35067;48.134;8.378;2023-04-29T04:33:10;7.03;;;3.87;;
49235;SDS011;35067;48.134;8.378;2023-04-29T04:34:11;4.15;;;3.50;;
49235;SDS011;35067;48.134;8.378;2023-04-29T04:35:12;4.07;;;3.37;;
49235;SDS011;35067;48.134;8.378;2023-04-29T04:36:13;4.15;;;3.45;;
49235;SDS011;35067;48.134;8.378;2023-04-29T04:37:14;5.67;;;4.20;;
49235;SDS011;35067;48.134;8.378;2023-04-29T04:38:15;6.33;;;3.80;;
49235;SDS011;35067;48.134;8.378;2023-04-29T04:39:16;5.15;;;4.00;;
49235;SDS011;35067;48.134;8.378;2023-04-29T04:40:17;5.97;;;4.17;;
49235;SDS011;35067;48.134;8.378;2023-04-29T04:41:18;4.18;;;3.50;;
49235;SDS011;35067;48.134;8.378;2023-04-29T04:42:19;4.33;;;3.23;;
49235;SDS011;35067;48.134;8.378;2023-04-29T04:43:21;4.78;;;3.65;;
49235;SDS011;35067;48.134;8.378;2023-04-29T04:44:22;4.88;;;3.28;;
49235;SDS011;35067;48.134;8.378;2023-04-29T04:45:23;4.20;;;3.47;;
49235;SDS011;35067;48.134;8.378;2023-04-29T04:46:24;5.47;;;3.83;;
49235;SDS011;35067;48.134;8.378;2023-04-29T04:47:25;3.97;;;3.57;;
49235;SDS011;35067;48.134;8.378;2023-04-29T04:48:25;5.57;;;3.80;;
49235;SDS011;35067;48.134;8.378;2023-04-29T04:49:26;4.60;;;3.37;;
49235;SDS011;35067;48.134;8.378;2023-04-29T04:50:27;6.03;;;4.07;;
49235;SDS011;35067;48.134;8.378;2023-04-29T04:51:28;5.68;;;3.28;;
49235;SDS011;35067;48.134;8.378;2023-04-29T04:52:29;5.13;;;3.13;;
49235;SDS011;35067;48.134;8.378;2023-04-29T04:53:30;5.90;;;2.90;;
49235;SDS011;35067;48.134;8.378;2023-04-29T04:54:31;5.97;;;3.60;;
49235;SDS011;35067;48.134;8.378;2023-04-29T04:55:32;4.17;;;2.83;;
49235;SDS011;35067;48.134;8.378;2023-04-29T04:56:37;3.42;;;2.97;;
49235;SDS011;35067;48.134;8.378;2023-04-29T04:57:38;5.10;;;2.90;;
49235;SDS011;35067;48.134;8.378;2023-04-29T04:58:39;4.03;;;2.85;;
49235;SDS011;35067;48.134;8.378;2023-04-29T04:59:40;3.10;;;2.80;;
49235;SDS011;35067;48.134;8.378;2023-04-29T05:00:44;3.00;;;2.40;;
49235;SDS011;35067;48.134;8.378;2023-04-29T05:01:45;2.63;;;2.42;;
49235;SDS011;35067;48.134;8.378;2023-04-29T05:02:45;3.17;;;2.83;;
49235;SDS011;35067;48.134;8.378;2023-04-29T05:03:47;3.42;;;2.78;;
49235;SDS011;35067;48.134;8.378;2023-04-29T05:04:48;4.50;;;2.73;;
49235;SDS011;35067;48.134;8.378;2023-04-29T05:05:58;4.57;;;2.93;;
49235;SDS011;35067;48.134;8.378;2023-04-29T05:06:59;3.88;;;3.47;;
49235;SDS011;35067;48.134;8.378;2023-04-29T05:08:00;4.13;;;2.63;;
49235;SDS011;35067;48.134;8.378;2023-04-29T05:09:01;5.17;;;2.67;;
49235;SDS011;35067;48.134;8.378;2023-04-29T05:10:02;3.08;;;2.72;;
49235;SDS011;35067;48.134;8.378;2023-04-29T05:11:03;3.30;;;2.90;;
49235;SDS011;35067;48.134;8.378;2023-04-29T05:12:05;3.58;;;3.10;;
49235;SDS011;35067;48.134;8.378;2023-04-29T05:13:05;3.87;;;3.47;;
49235;SDS011;35067;48.134;8.378;2023-04-29T05:14:07;4.45;;;3.60;;
49235;SDS011;35067;48.134;8.378;2023-04-29T05:15:08;3.73;;;3.27;;
49235;SDS011;35067;48.134;8.378;2023-04-29T05:16:10;4.18;;;3.75;;
49235;SDS011;35067;48.134;8.378;2023-04-29T05:17:11;7.57;;;4.10;;
49235;SDS011;35067;48.134;8.378;2023-04-29T05:18:13;4.97;;;4.10;;
49235;SDS011;35067;48.134;8.378;2023-04-29T05:19:14;6.30;;;4.03;;
49235;SDS011;35067;48.134;8.378;2023-04-29T05:20:15;7.75;;;4.68;;
49235;SDS011;35067;48.134;8.378;2023-04-29T05:21:17;19.77;;;18.40;;
49235;SDS011;35067;48.134;8.378;2023-04-29T05:22:18;7.70;;;7.10;;
49235;SDS011;35067;48.134;8.378;2023-04-29T05:23:19;4.47;;;4.00;;
49235;SDS011;35067;48.134;8.378;2023-04-29T05:24:19;15.13;;;14.13;;
49235;SDS011;35067;48.134;8.378;2023-04-29T05:25:20;8.20;;;7.47;;
49235;SDS011;35067;48.134;8.378;2023-04-29T05:26:21;5.10;;;4.50;;
49235;SDS011;35067;48.134;8.378;2023-04-29T05:27:24;5.70;;;4.75;;
49235;SDS011;35067;48.134;8.378;2023-04-29T05:28:25;7.30;;;4.70;;
49235;SDS011;35067;48.134;8.378;2023-04-29T05:29:25;6.13;;;4.90;;
49235;SDS011;35067;48.134;8.378;2023-04-29T05:30:27;5.15;;;4.07;;
49235;SDS011;35067;48.134;8.378;2023-04-29T05:31:27;5.50;;;4.77;;
49235;SDS011;35067;48.134;8.378;2023-04-29T05:32:28;8.43;;;7.83;;
49235;SDS011;35067;48.134;8.378;2023-04-29T05:33:30;4.93;;;4.43;;
49235;SDS011;35067;48.134;8.378;2023-04-29T05:34:31;4.97;;;4.47;;
49235;SDS011;35067;48.134;8.378;2023-04-29T05:35:32;15.85;;;14.85;;
49235;SDS011;35067;48.134;8.378;2023-04-29T05:36:33;5.13;;;4.40;;
49235;SDS011;35067;48.134;8.378;2023-04-29T05:37:34;4.40;;;4.00;;
49235;SDS011;35067;48.134;8.378;2023-04-29T05:38:35;13.87;;;12.87;;
49235;SDS011;35067;48.134;8.378;2023-04-29T05:39:35;4.87;;;4.03;;
49235;SDS011;35067;48.134;8.378;2023-04-29T05:40:36;7.23;;;4.57;;
49235;SDS011;35067;48.134;8.378;2023-04-29T05:41:37;5.40;;;4.90;;
49235;SDS011;35067;48.134;8.378;2023-04-29T05:42:38;4.67;;;4.20;;
49235;SDS011;35067;48.134;8.378;2023-04-29T05:43:39;7.82;;;5.35;;
49235;SDS011;35067;48.134;8.378;2023-04-29T05:44:39;5.50;;;5.00;;
49235;SDS011;35067;48.134;8.378;2023-04-29T05:45:40;5.63;;;4.30;;
49235;SDS011;35067;48.134;8.378;2023-04-29T05:46:42;5.60;;;4.95;;
49235;SDS011;35067;48.134;8.378;2023-04-29T05:47:43;8.07;;;7.33;;
49235;SDS011;35067;48.134;8.378;2023-04-29T05:48:44;6.33;;;5.67;;
49235;SDS011;35067;48.134;8.378;2023-04-29T05:49:45;6.97;;;4.72;;
49235;SDS011;35067;48.134;8.378;2023-04-29T05:50:45;5.30;;;3.83;;
49235;SDS011;35067;48.134;8.378;2023-04-29T05:51:47;6.15;;;5.65;;
49235;SDS011;35067;48.134;8.378;2023-04-29T05:52:48;5.13;;;3.90;;
49235;SDS011;35067;48.134;8.378;2023-04-29T05:53:48;4.57;;;3.80;;
49235;SDS011;35067;48.134;8.378;2023-04-29T05:54:49;6.95;;;6.40;;
49235;SDS011;35067;48.134;8.378;2023-04-29T05:55:50;22.23;;;5.63;;
49235;SDS011;35067;48.134;8.378;2023-04-29T05:56:51;4.60;;;4.10;;
49235;SDS011;35067;48.134;8.378;2023-04-29T05:57:52;6.57;;;5.97;;
49235;SDS011;35067;48.134;8.378;2023-04-29T05:58:52;4.90;;;4.00;;
49235;SDS011;35067;48.134;8.378;2023-04-29T05:59:53;5.50;;;5.00;;
49235;SDS011;35067;48.134;8.378;2023-04-29T06:00:54;4.60;;;4.20;;
49235;SDS011;35067;48.134;8.378;2023-04-29T06:01:54;8.67;;;7.90;;
49235;SDS011;35067;48.134;8.378;2023-04-29T06:02:56;4.68;;;4.25;;
49235;SDS011;35067;48.134;8.378;2023-04-29T06:03:57;4.13;;;3.83;;
49235;SDS011;35067;48.134;8.378;2023-04-29T06:04:57;4.43;;;3.70;;
49235;SDS011;35067;48.134;8.378;2023-04-29T06:05:58;4.50;;;3.43;;
49235;SDS011;35067;48.134;8.378;2023-04-29T06:06:59;3.60;;;3.30;;
49235;SDS011;35067;48.134;8.378;2023-04-29T06:08:00;3.83;;;3.10;;
49235;SDS011;35067;48.134;8.378;2023-04-29T06:09:03;3.47;;;3.10;;
49235;SDS011;35067;48.134;8.378;2023-04-29T06:10:04;3.93;;;3.53;;
49235;SDS011;35067;48.134;8.378;2023-04-29T06:11:06;3.80;;;3.42;;
49235;SDS011;35067;48.134;8.378;2023-04-29T06:12:07;4.32;;;3.30;;
49235;SDS011;35067;48.134;8.378;2023-04-29T06:13:08;4.57;;;3.37;;
49235;SDS011;35067;48.134;8.378;2023-04-29T06:14:08;4.57;;;4.17;;
49235;SDS011;35067;48.134;8.378;2023-04-29T06:15:09;4.55;;;3.30;;
49235;SDS011;35067;48.134;8.378;2023-04-29T06:16:11;5.30;;;4.88;;
49235;SDS011;35067;48.134;8.378;2023-04-29T06:17:11;4.10;;;3.70;;
49235;SDS011;35067;48.134;8.378;2023-04-29T06:18:12;3.20;;;2.73;;
49235;SDS011;35067;48.134;8.378;2023-04-29T06:19:14;3.55;;;2.90;;
49235;SDS011;35067;48.134;8.378;2023-04-29T06:20:16;5.15;;;3.75;;
49235;SDS011;35067;48.134;8.378;2023-04-29T06:21:17;3.10;;;2.70;;
49235;SDS011;35067;48.134;8.378;2023-04-29T06:22:18;4.78;;;4.38;;
49235;SDS011;35067;48.134;8.378;2023-04-29T06:23:19;3.63;;;3.03;;
49235;SDS011;35067;48.134;8.378;2023-04-29T06:24:20;13.30;;;12.50;;
49235;SDS011;35067;48.134;8.378;2023-04-29T06:25:20;3.27;;;2.97;;